createdAt,value
2018-11-03T00:00:03.866Z,14.50
2018-11-03T00:02:32.337Z,14.97
2018-11-03T00:05:01.664Z,17.23
2018-11-03T00:07:30.065Z,19.10
2018-11-03T00:09:59.135Z,16.30
2018-11-03T00:12:27.367Z,16.17
2018-11-03T00:14:55.674Z,14.50
2018-11-03T00:17:24.124Z,13.70
2018-11-03T00:19:52.792Z,14.17
2018-11-03T00:22:21.176Z,14.07
2018-11-03T00:24:50.295Z,11.70
2018-11-03T00:27:18.553Z,11.00
2018-11-03T00:29:47.255Z,13.23
2018-11-03T00:32:15.836Z,15.00
2018-11-03T00:34:44.638Z,11.83
2018-11-03T00:37:13.695Z,14.43
2018-11-03T00:39:42.603Z,11.87
2018-11-03T00:42:11.281Z,12.70
2018-11-03T00:44:39.986Z,14.67
2018-11-03T00:47:08.647Z,11.67
2018-11-03T00:49:37.865Z,11.10
2018-11-03T00:52:06.688Z,11.90
2018-11-03T00:54:35.603Z,11.27
2018-11-03T00:57:04.501Z,12.57
2018-11-03T00:59:32.847Z,14.10
2018-11-03T01:02:02.607Z,10.37
2018-11-03T01:04:31.295Z,14.47
2018-11-03T01:07:00.075Z,14.63
2018-11-03T01:09:29.415Z,12.97
2018-11-03T01:11:58.675Z,12.73
2018-11-03T01:14:26.928Z,15.83
2018-11-03T01:16:55.555Z,16.87
2018-11-03T01:19:24.357Z,17.60
2018-11-03T01:21:53.698Z,10.97
2018-11-03T01:24:22.107Z,13.13
2018-11-03T01:26:50.426Z,11.03
2018-11-03T01:29:19.594Z,10.53
2018-11-03T01:31:47.907Z,13.10
2018-11-03T01:34:16.433Z,11.53
2018-11-03T01:36:45.685Z,12.27
2018-11-03T01:39:13.938Z,13.90
2018-11-03T01:41:42.631Z,13.23
2018-11-03T01:44:11.306Z,12.50
2018-11-03T01:46:40.097Z,15.47
2018-11-03T01:49:09.183Z,14.10
2018-11-03T01:51:37.418Z,12.27
2018-11-03T01:54:06.037Z,14.43
2018-11-03T01:56:34.575Z,14.23
2018-11-03T01:59:02.836Z,14.67
2018-11-03T02:01:31.110Z,14.17
2018-11-03T02:03:59.672Z,13.80
2018-11-03T02:06:28.454Z,12.23
2018-11-03T02:08:57.013Z,12.43
2018-11-03T02:11:26.132Z,14.43
2018-11-03T02:13:55.598Z,16.57
2018-11-03T02:16:23.841Z,12.27
2018-11-03T02:18:52.527Z,11.87
2018-11-03T02:21:21.127Z,13.90
2018-11-03T02:23:50.947Z,15.70
2018-11-03T02:26:19.843Z,13.30
2018-11-03T02:28:49.845Z,13.83
2018-11-03T02:31:18.227Z,12.00
2018-11-03T02:33:46.702Z,16.07
2018-11-03T02:36:15.653Z,12.57
2018-11-03T02:38:44.079Z,12.67
2018-11-03T02:41:12.563Z,15.40
2018-11-03T02:43:40.875Z,13.47
2018-11-03T02:46:09.399Z,14.80
2018-11-03T02:48:38.086Z,15.43
2018-11-03T02:51:06.551Z,12.70
2018-11-03T02:53:35.250Z,19.50
2018-11-03T02:56:03.604Z,15.00
2018-11-03T02:58:32.187Z,16.30
2018-11-03T03:01:00.745Z,15.23
2018-11-03T03:03:28.994Z,17.30
2018-11-03T03:05:57.668Z,13.63
2018-11-03T03:08:26.155Z,16.63
2018-11-03T03:10:54.418Z,16.30
2018-11-03T03:13:23.305Z,13.33
2018-11-03T03:15:52.147Z,14.30
2018-11-03T03:18:21.022Z,14.67
2018-11-03T03:20:49.492Z,17.40
2018-11-03T03:23:17.972Z,16.67
2018-11-03T03:25:46.523Z,14.17
2018-11-03T03:28:14.847Z,17.27
2018-11-03T03:30:43.494Z,17.40
2018-11-03T03:33:11.939Z,19.77
2018-11-03T03:35:40.792Z,19.10
2018-11-03T03:38:09.137Z,20.47
2018-11-03T03:40:38.191Z,20.97
2018-11-03T03:43:06.780Z,22.47
2018-11-03T03:45:35.966Z,19.73
2018-11-03T03:48:04.884Z,20.03
2018-11-03T03:50:33.505Z,24.93
2018-11-03T03:53:02.081Z,23.93
2018-11-03T03:55:30.463Z,25.63
2018-11-03T03:57:58.932Z,22.17
2018-11-03T04:00:27.197Z,22.73
2018-11-03T04:02:55.412Z,20.57
2018-11-03T04:05:23.947Z,21.67
2018-11-03T04:07:52.194Z,18.33
2018-11-03T04:10:20.440Z,21.70
2018-11-03T04:12:49.867Z,20.63
2018-11-03T04:15:18.237Z,19.50
2018-11-03T04:17:46.704Z,19.63
2018-11-03T04:20:15.059Z,24.30
2018-11-03T04:22:43.525Z,19.77
2018-11-03T04:25:12.772Z,20.03
2018-11-03T04:27:41.061Z,23.47
2018-11-03T04:30:11.537Z,23.30
2018-11-03T04:32:39.720Z,27.50
2018-11-03T04:35:08.520Z,26.07
2018-11-03T04:37:37.095Z,25.70
2018-11-03T04:40:06.857Z,26.47
2018-11-03T04:42:36.636Z,24.70
2018-11-03T04:45:05.120Z,29.63
2018-11-03T04:47:33.359Z,27.73
2018-11-03T04:50:01.955Z,23.40
2018-11-03T04:52:30.198Z,30.27
2018-11-03T04:54:58.835Z,27.00
2018-11-03T04:57:27.266Z,27.67
2018-11-03T04:59:55.715Z,27.27
2018-11-03T05:02:24.038Z,28.13
2018-11-03T05:04:52.742Z,27.47
2018-11-03T05:07:21.444Z,26.10
2018-11-03T05:09:49.932Z,27.00
2018-11-03T05:12:18.799Z,27.13
2018-11-03T05:14:47.009Z,27.07
2018-11-03T05:17:15.770Z,30.60
2018-11-03T05:19:43.975Z,30.17
2018-11-03T05:22:12.215Z,26.43
2018-11-03T05:24:40.736Z,28.43
2018-11-03T05:27:09.335Z,31.50
2018-11-03T05:29:43.267Z,30.63
2018-11-03T05:32:11.710Z,30.37
2018-11-03T05:34:40.266Z,30.67
2018-11-03T05:37:08.635Z,32.50
2018-11-03T05:39:37.153Z,32.60
2018-11-03T05:42:06.069Z,31.90
2018-11-03T05:44:34.399Z,32.13
2018-11-03T05:47:03.490Z,34.77
2018-11-03T05:49:32.312Z,31.70
2018-11-03T05:52:00.770Z,34.63
2018-11-03T05:54:29.210Z,30.43
2018-11-03T05:56:57.415Z,30.03
2018-11-03T05:59:25.628Z,29.03
2018-11-03T06:01:53.952Z,31.83
2018-11-03T06:04:22.503Z,34.20
2018-11-03T06:06:52.178Z,31.60
2018-11-03T06:09:20.484Z,35.83
2018-11-03T06:11:48.830Z,32.23
2018-11-03T06:14:17.357Z,29.70
2018-11-03T06:16:45.555Z,30.67
2018-11-03T06:19:14.036Z,31.97
2018-11-03T06:21:42.239Z,32.93
2018-11-03T06:24:10.441Z,39.27
2018-11-03T06:26:38.883Z,35.47
2018-11-03T06:29:07.274Z,36.30
2018-11-03T06:31:35.683Z,37.70
2018-11-03T06:34:04.323Z,32.47
2018-11-03T06:36:32.716Z,38.40
2018-11-03T06:39:01.037Z,41.07
2018-11-03T06:41:29.446Z,37.60
2018-11-03T06:43:57.754Z,40.03
2018-11-03T06:46:26.136Z,35.30
2018-11-03T06:48:58.527Z,34.97
2018-11-03T06:51:26.839Z,39.50
2018-11-03T06:53:55.211Z,43.30
2018-11-03T06:56:23.537Z,40.17
2018-11-03T06:58:52.040Z,38.27
2018-11-03T07:01:20.262Z,42.17
2018-11-03T07:03:48.679Z,42.60
2018-11-03T07:06:17.151Z,38.13
2018-11-03T07:08:45.522Z,40.93
2018-11-03T07:11:13.809Z,44.63
2018-11-03T07:13:42.067Z,42.63
2018-11-03T07:16:10.346Z,44.23
2018-11-03T07:18:38.693Z,48.27
2018-11-03T07:21:06.944Z,39.73
2018-11-03T07:23:35.173Z,38.13
2018-11-03T07:26:03.569Z,37.97
2018-11-03T07:28:33.103Z,44.00
2018-11-03T07:31:02.096Z,42.47
2018-11-03T07:33:30.732Z,49.57
2018-11-03T07:35:59.737Z,45.10
2018-11-03T07:38:28.326Z,39.53
2018-11-03T07:40:56.537Z,42.53
2018-11-03T07:43:24.891Z,42.77
2018-11-03T07:45:54.200Z,54.90
2018-11-03T07:48:22.969Z,44.90
2018-11-03T07:50:51.052Z,48.17
2018-11-03T07:53:19.341Z,36.57
2018-11-03T07:55:47.565Z,39.23
2018-11-03T07:58:15.758Z,49.40
2018-11-03T08:00:43.944Z,45.87
2018-11-03T08:03:12.292Z,40.03
2018-11-03T08:05:40.714Z,41.70
2018-11-03T08:08:09.006Z,38.17
2018-11-03T08:10:37.216Z,38.50
2018-11-03T08:13:06.402Z,38.80
2018-11-03T08:15:34.774Z,37.13
2018-11-03T08:18:03.127Z,37.77
2018-11-03T08:20:31.374Z,39.50
2018-11-03T08:22:59.610Z,39.43
2018-11-03T08:25:27.855Z,37.93
2018-11-03T08:27:56.901Z,41.23
2018-11-03T08:30:25.376Z,35.40
2018-11-03T08:32:53.580Z,34.73
2018-11-03T08:35:21.868Z,33.83
2018-11-03T08:37:50.158Z,35.30
2018-11-03T08:40:18.404Z,36.37
2018-11-03T08:42:46.723Z,37.07
2018-11-03T08:45:14.903Z,32.13
2018-11-03T08:47:43.165Z,34.07
2018-11-03T08:50:12.454Z,30.37
2018-11-03T08:52:41.231Z,36.87
2018-11-03T08:55:10.755Z,35.57
2018-11-03T08:57:39.007Z,36.13
2018-11-03T09:00:09.535Z,35.43
2018-11-03T09:02:37.705Z,35.43
2018-11-03T09:05:06.765Z,33.80
2018-11-03T09:07:35.354Z,32.60
2018-11-03T09:10:03.984Z,29.60
2018-11-03T09:12:32.223Z,30.87
2018-11-03T09:15:00.479Z,30.83
2018-11-03T09:17:28.686Z,36.63
2018-11-03T09:19:57.092Z,34.77
2018-11-03T09:22:25.473Z,30.80
2018-11-03T09:24:53.701Z,35.77
2018-11-03T09:27:21.907Z,32.73
2018-11-03T09:29:50.113Z,32.50
2018-11-03T09:32:18.406Z,31.77
2018-11-03T09:34:46.735Z,32.77
2018-11-03T09:37:14.905Z,32.13
2018-11-03T09:39:43.139Z,32.37
2018-11-03T09:42:11.336Z,35.30
2018-11-03T09:44:40.041Z,29.60
2018-11-03T09:47:09.894Z,29.77
2018-11-03T09:49:39.275Z,30.63
2018-11-03T09:52:08.096Z,29.87
2018-11-03T09:54:36.879Z,27.80
2018-11-03T09:57:05.999Z,29.20
2018-11-03T09:59:34.354Z,29.33
2018-11-03T10:02:02.540Z,27.67
2018-11-03T10:04:30.961Z,28.07
2018-11-03T10:06:59.251Z,28.00
2018-11-03T10:09:27.500Z,26.53
2018-11-03T10:11:55.799Z,28.80
2018-11-03T10:14:24.178Z,29.90
2018-11-03T10:16:52.559Z,28.50
2018-11-03T10:19:21.101Z,30.17
2018-11-03T10:21:49.455Z,28.27
2018-11-03T10:24:17.839Z,29.97
2018-11-03T10:26:46.046Z,28.47
2018-11-03T10:29:14.495Z,28.20
2018-11-03T10:31:43.410Z,26.90
2018-11-03T10:34:11.669Z,29.07
2018-11-03T10:36:40.168Z,26.10
2018-11-03T10:39:09.983Z,28.03
2018-11-03T10:41:38.213Z,28.37
2018-11-03T10:44:06.476Z,26.43
2018-11-03T10:46:35.228Z,25.60
2018-11-03T10:49:03.915Z,29.67
2018-11-03T10:51:32.654Z,26.27
2018-11-03T10:54:01.354Z,23.70
2018-11-03T10:56:29.941Z,25.80
2018-11-03T10:58:58.654Z,28.20
2018-11-03T11:01:32.689Z,27.03
2018-11-03T11:04:06.574Z,22.53
2018-11-03T11:06:40.318Z,24.20
2018-11-03T11:09:14.388Z,23.67
2018-11-03T11:11:48.309Z,24.30
2018-11-03T11:14:17.672Z,24.10
2018-11-03T11:16:45.886Z,21.90
2018-11-03T11:19:14.082Z,22.80
2018-11-03T11:21:42.488Z,22.23
2018-11-03T11:24:11.166Z,21.33
2018-11-03T11:26:39.289Z,21.00
2018-11-03T11:29:07.552Z,19.70
2018-11-03T11:31:36.024Z,21.50
2018-11-03T11:34:04.491Z,21.67
2018-11-03T11:36:32.807Z,19.47
2018-11-03T11:39:01.847Z,21.00
2018-11-03T11:41:30.176Z,26.67
2018-11-03T11:43:58.495Z,23.80
2018-11-03T11:46:27.592Z,24.90
2018-11-03T11:48:56.219Z,21.80
2018-11-03T11:51:25.499Z,20.67
2018-11-03T11:53:53.686Z,27.10
2018-11-03T11:56:22.084Z,23.73
2018-11-03T11:58:50.478Z,24.40
2018-11-03T12:01:18.726Z,26.13
2018-11-03T12:03:46.935Z,24.00
2018-11-03T12:06:15.388Z,24.43
2018-11-03T12:08:43.680Z,22.60
2018-11-03T12:11:11.899Z,22.97
2018-11-03T12:13:40.182Z,22.63
2018-11-03T12:16:09.341Z,24.37
2018-11-03T12:18:37.405Z,23.57
2018-11-03T12:21:05.693Z,23.93
2018-11-03T12:23:33.998Z,23.33
2018-11-03T12:26:02.416Z,21.00
2018-11-03T12:28:30.638Z,22.57
2018-11-03T12:30:59.113Z,23.50
2018-11-03T12:33:27.679Z,23.73
2018-11-03T12:35:56.046Z,22.47
2018-11-03T12:38:24.299Z,22.47
2018-11-03T12:40:52.642Z,21.80
2018-11-03T12:43:20.882Z,25.93
2018-11-03T12:45:49.118Z,23.77
2018-11-03T12:48:17.486Z,25.53
2018-11-03T12:50:45.719Z,21.17
2018-11-03T12:53:13.964Z,26.00
2018-11-03T12:55:42.327Z,21.53
2018-11-03T12:58:10.810Z,23.67
2018-11-03T13:00:39.045Z,25.47
2018-11-03T13:03:07.344Z,24.53
2018-11-03T13:05:35.707Z,27.40
2018-11-03T13:08:03.890Z,23.37
2018-11-03T13:10:32.295Z,22.30
2018-11-03T13:13:00.596Z,27.27
2018-11-03T13:15:28.843Z,22.73
2018-11-03T13:17:57.148Z,24.53
2018-11-03T13:20:25.491Z,23.73
2018-11-03T13:22:54.071Z,23.27
2018-11-03T13:25:22.580Z,24.23
2018-11-03T13:27:50.890Z,21.73
2018-11-03T13:30:19.295Z,22.27
2018-11-03T13:32:47.714Z,23.40
2018-11-03T13:35:15.922Z,21.77
2018-11-03T13:37:44.725Z,23.90
2018-11-03T13:40:14.025Z,20.73
2018-11-03T13:42:43.723Z,22.27
2018-11-03T13:45:12.336Z,22.40
2018-11-03T13:47:41.815Z,23.23
2018-11-03T13:50:13.029Z,25.63
2018-11-03T13:52:43.579Z,23.03
2018-11-03T13:55:12.344Z,22.50
2018-11-03T13:57:42.050Z,19.73
2018-11-03T14:00:11.874Z,24.53
2018-11-03T14:02:41.691Z,21.80
2018-11-03T14:05:11.213Z,23.30
2018-11-03T14:07:46.432Z,25.37
2018-11-03T14:10:16.343Z,21.60
2018-11-03T14:12:45.267Z,25.20
2018-11-03T14:15:14.927Z,22.83
2018-11-03T14:17:43.350Z,26.87
2018-11-03T14:20:12.790Z,22.83
2018-11-03T14:22:41.915Z,21.57
2018-11-03T14:25:11.903Z,22.30
2018-11-03T14:27:40.359Z,24.70
2018-11-03T14:30:09.663Z,22.53
2018-11-03T14:32:38.048Z,26.07
2018-11-03T14:35:06.611Z,22.30
2018-11-03T14:37:34.811Z,22.00
2018-11-03T14:40:03.127Z,22.83
2018-11-03T14:42:31.327Z,24.17
2018-11-03T14:44:59.563Z,24.00
2018-11-03T14:47:28.209Z,21.43
2018-11-03T14:49:57.148Z,23.87
2018-11-03T14:52:25.468Z,27.00
2018-11-03T14:54:53.743Z,24.13
2018-11-03T14:57:22.019Z,23.53
2018-11-03T14:59:50.243Z,22.40
2018-11-03T15:02:18.638Z,24.30
2018-11-03T15:04:46.798Z,26.13
2018-11-03T15:07:15.582Z,22.00
2018-11-03T15:09:44.191Z,23.30
2018-11-03T15:12:12.926Z,24.70
2018-11-03T15:14:41.128Z,24.60
2018-11-03T15:17:09.699Z,21.57
2018-11-03T15:19:38.180Z,21.20
2018-11-03T15:22:06.983Z,24.30
2018-11-03T15:24:35.217Z,21.33
2018-11-03T15:27:03.942Z,25.63
2018-11-03T15:29:32.287Z,24.73
2018-11-03T15:32:00.510Z,23.13
2018-11-03T15:34:28.977Z,21.80
2018-11-03T15:36:57.785Z,24.23
2018-11-03T15:39:26.260Z,29.13
2018-11-03T15:41:54.443Z,24.73
2018-11-03T15:44:22.819Z,24.73
2018-11-03T15:46:51.038Z,31.93
2018-11-03T15:49:19.258Z,26.03
2018-11-03T15:51:48.002Z,24.63
2018-11-03T15:54:16.187Z,23.80
2018-11-03T15:56:44.421Z,23.60
2018-11-03T15:59:12.759Z,19.23
2018-11-03T16:01:40.969Z,22.43
2018-11-03T16:04:09.318Z,23.30
2018-11-03T16:06:37.726Z,24.43
2018-11-03T16:09:08.964Z,23.77
2018-11-03T16:11:37.204Z,21.37
2018-11-03T16:14:05.891Z,20.37
2018-11-03T16:16:35.082Z,20.23
2018-11-03T16:19:03.367Z,21.40
2018-11-03T16:21:31.594Z,20.87
2018-11-03T16:23:59.839Z,23.20
2018-11-03T16:26:28.208Z,22.10
2018-11-03T16:28:56.915Z,25.67
2018-11-03T16:31:25.146Z,21.60
2018-11-03T16:33:53.776Z,27.43
2018-11-03T16:36:22.043Z,24.43
2018-11-03T16:38:50.431Z,29.73
2018-11-03T16:41:18.680Z,55.57
2018-11-03T16:43:47.076Z,26.57
2018-11-03T16:46:15.275Z,27.23
2018-11-03T16:48:43.727Z,21.40
2018-11-03T16:51:12.089Z,21.20
2018-11-03T16:53:40.462Z,22.20
2018-11-03T16:56:08.921Z,19.77
2018-11-03T16:58:37.454Z,23.23
2018-11-03T17:01:07.565Z,23.07
2018-11-03T17:03:36.076Z,20.50
2018-11-03T17:06:04.718Z,20.23
2018-11-03T17:08:32.942Z,22.50
2018-11-03T17:11:02.641Z,19.53
2018-11-03T17:13:31.248Z,20.40
2018-11-03T17:16:00.189Z,21.83
2018-11-03T17:18:28.733Z,24.07
2018-11-03T17:20:57.887Z,23.30
2018-11-03T17:23:26.261Z,25.13
2018-11-03T17:25:54.769Z,23.13
2018-11-03T17:28:24.902Z,21.73
2018-11-03T17:30:55.184Z,17.60
2018-11-03T17:33:23.700Z,21.43
2018-11-03T17:35:53.319Z,21.33
2018-11-03T17:38:21.780Z,22.27
2018-11-03T17:40:50.023Z,22.83
2018-11-03T17:43:18.685Z,20.83
2018-11-03T17:45:46.965Z,19.37
2018-11-03T17:48:15.447Z,21.57
2018-11-03T17:50:44.324Z,22.03
2018-11-03T17:53:13.340Z,22.47
2018-11-03T17:55:41.899Z,20.07
2018-11-03T17:58:10.259Z,20.03
2018-11-03T18:00:39.127Z,20.07
2018-11-03T18:03:07.318Z,22.27
2018-11-03T18:05:36.178Z,23.13
2018-11-03T18:08:05.762Z,23.93
2018-11-03T18:10:34.068Z,27.97
2018-11-03T18:13:02.589Z,20.53
2018-11-03T18:15:32.170Z,20.33
2018-11-03T18:18:00.718Z,26.83
2018-11-03T18:20:29.008Z,20.63
2018-11-03T18:22:57.828Z,22.90
2018-11-03T18:25:26.279Z,21.37
2018-11-03T18:27:54.706Z,21.80
2018-11-03T18:30:23.202Z,26.00
2018-11-03T18:32:51.984Z,23.23
2018-11-03T18:35:20.232Z,25.07
2018-11-03T18:37:48.931Z,21.63
2018-11-03T18:40:17.597Z,24.90
2018-11-03T18:42:46.007Z,21.57
2018-11-03T18:45:14.214Z,21.73
2018-11-03T18:47:42.547Z,22.53
2018-11-03T18:50:12.663Z,22.33
2018-11-03T18:52:41.687Z,19.33
2018-11-03T18:55:11.008Z,20.53
2018-11-03T18:57:41.163Z,18.43
2018-11-03T19:00:10.492Z,18.97
2018-11-03T19:02:40.380Z,21.90
2018-11-03T19:05:09.879Z,22.43
2018-11-03T19:07:38.368Z,23.07
2018-11-03T19:10:08.956Z,19.40
2018-11-03T19:12:37.256Z,21.60
2018-11-03T19:15:06.391Z,20.17
2018-11-03T19:17:34.618Z,19.97
2018-11-03T19:20:03.234Z,20.73
2018-11-03T19:22:33.168Z,20.43
2018-11-03T19:25:01.544Z,19.90
2018-11-03T19:27:29.921Z,20.43
2018-11-03T19:29:58.195Z,21.90
2018-11-03T19:32:26.876Z,22.77
2018-11-03T19:34:55.330Z,22.63
2018-11-03T19:37:24.719Z,21.83
2018-11-03T19:39:53.143Z,20.13
2018-11-03T19:42:21.772Z,24.73
2018-11-03T19:44:50.236Z,21.17
2018-11-03T19:47:18.644Z,22.43
2018-11-03T19:49:47.073Z,23.13
2018-11-03T19:52:15.263Z,23.40
2018-11-03T19:54:43.555Z,17.47
2018-11-03T19:57:12.351Z,20.80
2018-11-03T19:59:42.736Z,22.73
2018-11-03T20:02:12.076Z,20.73
2018-11-03T20:04:40.324Z,25.90
2018-11-03T20:07:10.831Z,25.00
2018-11-03T20:09:40.311Z,20.17
2018-11-03T20:12:09.538Z,22.33
2018-11-03T20:14:38.537Z,20.20
2018-11-03T20:17:06.998Z,22.50
2018-11-03T20:19:35.238Z,19.67
2018-11-03T20:22:03.516Z,23.27
2018-11-03T20:24:32.203Z,23.83
2018-11-03T20:27:00.678Z,21.87
2018-11-03T20:29:30.075Z,29.83
2018-11-03T20:31:58.964Z,24.60
2018-11-03T20:34:27.104Z,21.33
2018-11-03T20:36:55.634Z,24.87
2018-11-03T20:39:23.873Z,33.83
2018-11-03T20:41:52.137Z,22.47
2018-11-03T20:44:20.726Z,17.03
2018-11-03T20:46:49.324Z,25.73
2018-11-03T20:49:18.591Z,20.33
2018-11-03T20:51:50.006Z,22.40
2018-11-03T20:54:18.579Z,17.37
2018-11-03T20:56:46.957Z,17.83
2018-11-03T20:59:15.698Z,19.13
2018-11-03T21:01:44.333Z,16.97
2018-11-03T21:04:12.984Z,16.90
2018-11-03T21:06:43.425Z,23.23
2018-11-03T21:09:12.557Z,16.60
2018-11-03T21:11:41.825Z,17.10
2018-11-03T21:14:16.764Z,18.67
2018-11-03T21:16:45.747Z,18.87
2018-11-03T21:19:14.465Z,22.73
2018-11-03T21:21:44.442Z,19.80
2018-11-03T21:24:13.940Z,20.30
2018-11-03T21:26:42.918Z,22.57
2018-11-03T21:29:11.791Z,18.77
2018-11-03T21:31:40.414Z,18.17
2018-11-03T21:34:09.167Z,21.87
2018-11-03T21:36:37.805Z,21.23
2018-11-03T21:39:09.208Z,25.50
2018-11-03T21:41:39.148Z,22.33
2018-11-03T21:44:08.680Z,19.47
2018-11-03T21:46:37.500Z,19.57
2018-11-03T21:49:07.310Z,17.77
2018-11-03T21:51:36.081Z,19.77
2018-11-03T21:54:05.170Z,18.37
2018-11-03T21:56:34.406Z,17.17
2018-11-03T21:59:03.301Z,18.07
2018-11-03T22:01:33.233Z,16.97
2018-11-03T22:04:01.994Z,19.67
2018-11-03T22:06:30.589Z,19.00
2018-11-03T22:08:59.325Z,19.60
2018-11-03T22:11:28.356Z,16.80
2018-11-03T22:13:57.054Z,17.80
2018-11-03T22:16:27.455Z,19.03
2018-11-03T22:18:56.544Z,17.63
2018-11-03T22:21:24.996Z,17.93
2018-11-03T22:23:53.271Z,19.17
2018-11-03T22:26:21.560Z,18.10
2018-11-03T22:28:50.564Z,17.70
2018-11-03T22:31:19.196Z,17.87
2018-11-03T22:33:47.755Z,16.90
2018-11-03T22:36:16.250Z,16.43
2018-11-03T22:38:45.103Z,15.80
2018-11-03T22:41:13.842Z,17.57
2018-11-03T22:43:42.521Z,17.73
2018-11-03T22:46:10.773Z,19.20
2018-11-03T22:48:39.372Z,17.10
2018-11-03T22:51:11.886Z,16.77
2018-11-03T22:53:40.635Z,17.67
2018-11-03T22:56:08.873Z,18.77
2018-11-03T22:58:37.387Z,19.47
2018-11-03T23:01:06.270Z,17.87
2018-11-03T23:03:35.150Z,14.93
2018-11-03T23:06:03.688Z,17.77
2018-11-03T23:08:33.567Z,18.17
2018-11-03T23:11:03.227Z,17.03
2018-11-03T23:13:32.495Z,21.13
2018-11-03T23:16:01.773Z,20.00
2018-11-03T23:18:31.198Z,17.53
2018-11-03T23:20:59.964Z,19.63
2018-11-03T23:23:28.701Z,19.70
2018-11-03T23:25:58.847Z,18.40
2018-11-03T23:28:28.210Z,18.77
2018-11-03T23:30:57.287Z,19.30
2018-11-03T23:33:26.439Z,18.57
2018-11-03T23:35:54.868Z,18.97
2018-11-03T23:38:23.461Z,20.43
2018-11-03T23:40:51.899Z,16.47
2018-11-03T23:43:20.585Z,19.20
2018-11-03T23:45:50.514Z,19.30
2018-11-03T23:48:19.265Z,20.73
2018-11-03T23:50:48.508Z,19.13
2018-11-03T23:53:17.207Z,19.87
2018-11-03T23:55:46.003Z,19.37
2018-11-03T23:58:14.680Z,19.57
